createdAt,value
2022-10-24T00:01:11.525Z,10.25
2022-10-24T00:03:40.252Z,8.50
2022-10-24T00:06:07.784Z,10.00
2022-10-24T00:08:35.205Z,10.00
2022-10-24T00:11:02.616Z,11.00
2022-10-24T00:13:30.036Z,9.00
2022-10-24T00:15:57.435Z,9.00
2022-10-24T00:18:24.839Z,9.50
2022-10-24T00:20:53.516Z,12.00
2022-10-24T00:23:20.922Z,9.00
2022-10-24T00:25:48.545Z,9.00
2022-10-24T00:28:15.958Z,8.25
2022-10-24T00:30:43.340Z,9.50
2022-10-24T00:33:10.753Z,9.75
2022-10-24T00:35:38.147Z,9.50
2022-10-24T00:38:06.835Z,10.75
2022-10-24T00:40:34.236Z,9.00
2022-10-24T00:43:01.688Z,9.00
2022-10-24T00:45:40.037Z,9.75
2022-10-24T00:48:28.848Z,9.50
2022-10-24T00:50:57.765Z,8.50
2022-10-24T00:53:26.654Z,8.00
2022-10-24T00:55:56.748Z,8.00
2022-10-24T00:58:25.446Z,9.00
2022-10-24T01:00:52.895Z,8.00
2022-10-24T01:03:20.305Z,9.50
2022-10-24T01:05:56.390Z,8.00
2022-10-24T01:08:28.950Z,8.00
2022-10-24T01:10:58.952Z,8.00
2022-10-24T01:13:32.063Z,9.00
2022-10-24T01:16:03.323Z,9.00
2022-10-24T01:18:32.730Z,8.00
2022-10-24T01:21:15.308Z,7.75
2022-10-24T01:24:27.313Z,8.50
2022-10-24T01:27:06.723Z,8.50
2022-10-24T01:29:42.129Z,7.00
2022-10-24T01:32:12.204Z,7.25
2022-10-24T01:34:42.333Z,8.00
2022-10-24T01:37:10.767Z,9.50
2022-10-24T01:39:49.300Z,7.00
2022-10-24T01:42:17.718Z,7.00
2022-10-24T01:44:48.170Z,8.75
2022-10-24T01:47:16.991Z,6.25
2022-10-24T01:49:47.247Z,8.00
2022-10-24T01:52:15.285Z,7.50
2022-10-24T01:54:42.699Z,7.25
2022-10-24T01:57:10.505Z,7.25
2022-10-24T01:59:42.883Z,7.50
2022-10-24T02:02:13.500Z,6.25
2022-10-24T02:04:42.619Z,8.00
2022-10-24T02:07:10.073Z,6.00
2022-10-24T02:09:37.581Z,8.00
2022-10-24T02:12:05.125Z,7.00
2022-10-24T02:14:34.578Z,7.00
2022-10-24T02:17:02.117Z,7.00
2022-10-24T02:19:30.822Z,6.75
2022-10-24T02:22:02.157Z,7.25
2022-10-24T02:24:30.204Z,7.50
2022-10-24T02:26:58.974Z,7.75
2022-10-24T02:29:27.816Z,7.00
2022-10-24T02:31:56.100Z,7.25
2022-10-24T02:34:23.777Z,7.00
2022-10-24T02:36:54.003Z,8.00
2022-10-24T02:39:21.396Z,7.00
2022-10-24T02:41:48.793Z,6.25
2022-10-24T02:44:16.481Z,8.00
2022-10-24T02:46:43.906Z,6.00
2022-10-24T02:49:11.504Z,6.25
2022-10-24T02:51:40.007Z,6.00
2022-10-24T02:54:08.721Z,7.00
2022-10-24T02:56:36.136Z,7.75
2022-10-24T02:59:03.595Z,4.50
2022-10-24T03:01:31.093Z,6.00
2022-10-24T03:03:58.597Z,6.00
2022-10-24T03:06:26.000Z,6.00
2022-10-24T03:08:53.468Z,7.00
2022-10-24T03:11:22.176Z,5.00
2022-10-24T03:13:49.575Z,5.00
2022-10-24T03:16:16.989Z,6.25
2022-10-24T03:18:44.400Z,6.00
2022-10-24T03:21:11.818Z,8.00
2022-10-24T03:23:39.215Z,5.00
2022-10-24T03:26:07.075Z,5.50
2022-10-24T03:28:36.914Z,6.50
2022-10-24T03:31:04.402Z,6.00
2022-10-24T03:33:31.922Z,5.75
2022-10-24T03:35:59.985Z,5.00
2022-10-24T03:38:27.462Z,6.50
2022-10-24T03:40:54.856Z,7.00
2022-10-24T03:43:22.242Z,6.50
2022-10-24T03:45:50.947Z,6.50
2022-10-24T03:48:18.357Z,7.50
2022-10-24T03:50:46.732Z,5.25
2022-10-24T03:53:14.129Z,6.50
2022-10-24T03:55:41.621Z,5.00
2022-10-24T03:58:09.027Z,6.00
2022-10-24T04:00:40.108Z,5.00
2022-10-24T04:03:09.637Z,6.00
2022-10-24T04:05:37.123Z,6.00
2022-10-24T04:08:04.757Z,5.25
2022-10-24T04:10:32.152Z,5.50
2022-10-24T04:12:59.559Z,5.00
2022-10-24T04:15:27.025Z,6.00
2022-10-24T04:17:54.430Z,5.25
2022-10-24T04:20:23.355Z,5.75
2022-10-24T04:22:50.765Z,6.25
2022-10-24T04:25:18.353Z,5.00
2022-10-24T04:27:46.323Z,6.50
2022-10-24T04:30:16.564Z,5.50
2022-10-24T04:32:44.714Z,5.00
2022-10-24T04:35:12.345Z,5.00
2022-10-24T04:37:41.042Z,3.00
2022-10-24T04:40:09.262Z,5.25
2022-10-24T04:42:36.674Z,5.00
2022-10-24T04:45:04.161Z,4.00
2022-10-24T04:47:31.570Z,5.00
2022-10-24T04:49:58.982Z,5.50
2022-10-24T04:52:26.404Z,5.75
2022-10-24T04:54:55.126Z,4.75
2022-10-24T04:57:22.543Z,5.00
2022-10-24T04:59:49.978Z,7.00
2022-10-24T05:02:17.566Z,4.50
2022-10-24T05:04:45.036Z,6.75
2022-10-24T05:07:12.447Z,5.50
2022-10-24T05:09:39.882Z,6.00
2022-10-24T05:12:08.641Z,6.75
2022-10-24T05:14:36.105Z,6.00
2022-10-24T05:17:03.504Z,7.00
2022-10-24T05:19:31.055Z,5.25
2022-10-24T05:21:58.505Z,6.75
2022-10-24T05:24:25.907Z,5.25
2022-10-24T05:26:53.305Z,7.00
2022-10-24T05:29:21.995Z,5.00
2022-10-24T05:31:49.530Z,5.00
2022-10-24T05:34:16.923Z,5.00
2022-10-24T05:36:44.329Z,5.00
2022-10-24T05:39:11.733Z,4.75
2022-10-24T05:41:43.292Z,5.00
2022-10-24T05:44:13.753Z,4.00
2022-10-24T05:46:42.449Z,4.50
2022-10-24T05:49:09.854Z,5.25
2022-10-24T05:51:37.273Z,5.00
2022-10-24T05:54:04.877Z,5.75
2022-10-24T05:56:33.056Z,5.00
2022-10-24T05:59:00.443Z,6.00
2022-10-24T06:01:27.958Z,5.50
2022-10-24T06:03:56.669Z,5.00
2022-10-24T06:06:24.193Z,3.75
2022-10-24T06:08:51.647Z,4.00
2022-10-24T06:11:19.157Z,5.75
2022-10-24T06:13:46.614Z,5.00
2022-10-24T06:16:14.036Z,6.00
2022-10-24T06:18:41.453Z,4.75
2022-10-24T06:21:10.514Z,6.00
2022-10-24T06:23:37.903Z,6.00
2022-10-24T06:26:08.433Z,4.25
2022-10-24T06:28:35.901Z,5.75
2022-10-24T06:31:03.796Z,5.00
2022-10-24T06:33:31.213Z,6.25
2022-10-24T06:36:00.177Z,4.50
2022-10-24T06:38:28.889Z,6.00
2022-10-24T06:40:56.295Z,6.00
2022-10-24T06:43:23.686Z,6.00
2022-10-24T06:45:51.109Z,6.25
2022-10-24T06:48:18.568Z,7.00
2022-10-24T06:50:45.988Z,5.50
2022-10-24T06:53:13.448Z,5.25
2022-10-24T06:55:42.156Z,7.00
2022-10-24T06:58:09.590Z,4.00
2022-10-24T07:00:39.400Z,5.00
2022-10-24T07:03:06.818Z,4.00
2022-10-24T07:05:34.233Z,4.00
2022-10-24T07:08:01.628Z,5.25
2022-10-24T07:10:29.035Z,4.00
2022-10-24T07:12:57.742Z,6.25
2022-10-24T07:15:25.142Z,5.00
2022-10-24T07:17:52.533Z,5.25
2022-10-24T07:20:19.968Z,7.00
2022-10-24T07:22:47.640Z,5.50
2022-10-24T07:25:15.383Z,5.75
2022-10-24T07:27:42.902Z,5.00
2022-10-24T07:30:16.286Z,4.75
2022-10-24T07:32:43.942Z,4.00
2022-10-24T07:35:12.728Z,4.00
2022-10-24T07:37:40.131Z,6.00
2022-10-24T07:40:08.629Z,7.50
2022-10-24T07:42:36.067Z,6.25
2022-10-24T07:45:04.355Z,3.75
2022-10-24T07:47:33.051Z,4.00
2022-10-24T07:50:00.458Z,5.75
2022-10-24T07:52:27.861Z,4.00
2022-10-24T07:54:55.363Z,4.25
2022-10-24T07:57:22.880Z,5.00
2022-10-24T07:59:50.292Z,4.75
2022-10-24T08:02:18.025Z,5.50
2022-10-24T08:04:46.703Z,4.00
2022-10-24T08:07:14.124Z,5.00
2022-10-24T08:09:41.842Z,4.00
2022-10-24T08:12:09.256Z,6.00
2022-10-24T08:14:37.593Z,4.00
2022-10-24T08:17:05.521Z,6.00
2022-10-24T08:19:32.934Z,5.00
2022-10-24T08:22:01.704Z,5.00
2022-10-24T08:24:29.207Z,6.00
2022-10-24T08:26:56.690Z,6.25
2022-10-24T08:29:25.117Z,4.50
2022-10-24T08:31:53.029Z,6.25
2022-10-24T08:34:20.541Z,4.00
2022-10-24T08:36:48.453Z,4.50
2022-10-24T08:39:17.163Z,2.75
2022-10-24T08:41:46.777Z,4.00
2022-10-24T08:44:17.884Z,4.00
2022-10-24T08:46:49.016Z,2.25
2022-10-24T08:49:20.480Z,4.00
2022-10-24T08:51:49.022Z,6.00
2022-10-24T08:54:22.712Z,2.00
2022-10-24T08:56:50.198Z,5.00
2022-10-24T08:59:17.602Z,5.00
2022-10-24T09:01:46.543Z,4.00
2022-10-24T09:04:15.069Z,5.00
2022-10-24T09:06:42.473Z,4.00
2022-10-24T09:09:13.519Z,5.00
2022-10-24T09:11:47.662Z,3.50
2022-10-24T09:14:15.876Z,5.00
2022-10-24T09:16:43.366Z,5.00
2022-10-24T09:19:11.814Z,5.33
2022-10-24T09:21:39.487Z,5.00
2022-10-24T09:24:07.363Z,4.00
2022-10-24T09:26:34.754Z,4.00
2022-10-24T09:29:03.449Z,4.33
2022-10-24T09:31:30.852Z,5.00
2022-10-24T09:34:00.383Z,5.33
2022-10-24T09:36:29.987Z,2.00
2022-10-24T09:38:57.427Z,5.67
2022-10-24T09:41:25.515Z,5.67
2022-10-24T09:43:54.977Z,6.75
2022-10-24T09:46:24.721Z,4.25
2022-10-24T09:48:56.536Z,4.75
2022-10-24T09:51:29.737Z,4.00
2022-10-24T09:54:08.823Z,4.50
2022-10-24T09:56:37.577Z,2.00
2022-10-24T09:59:19.569Z,4.00
2022-10-24T10:01:49.415Z,4.00
2022-10-24T10:04:17.698Z,3.25
2022-10-24T10:06:45.507Z,3.75
2022-10-24T10:09:13.440Z,4.75
2022-10-24T10:11:49.469Z,4.00
2022-10-24T10:14:29.631Z,4.50
2022-10-24T10:17:02.386Z,4.75
2022-10-24T10:19:29.843Z,4.75
2022-10-24T10:21:59.605Z,4.00
2022-10-24T10:24:28.582Z,3.25
2022-10-24T10:26:56.047Z,4.00
2022-10-24T10:29:24.186Z,4.00
2022-10-24T10:31:54.069Z,3.75
2022-10-24T10:34:26.826Z,4.00
2022-10-24T10:37:00.984Z,3.25
2022-10-24T10:39:49.462Z,4.75
2022-10-24T10:42:18.516Z,4.00
2022-10-24T10:44:53.476Z,2.50
2022-10-24T10:47:27.551Z,3.25
2022-10-24T10:49:58.260Z,3.75
2022-10-24T10:52:26.553Z,4.00
2022-10-24T10:55:05.223Z,3.25
2022-10-24T10:57:35.243Z,3.00
2022-10-24T11:00:07.717Z,3.25
2022-10-24T11:02:59.366Z,6.25
2022-10-24T11:05:34.442Z,4.75
2022-10-24T11:08:07.166Z,3.50
2022-10-24T11:10:35.922Z,3.25
2022-10-24T11:13:04.655Z,3.75
2022-10-24T11:15:32.694Z,3.00
2022-10-24T11:18:01.913Z,3.00
2022-10-24T11:20:32.268Z,4.50
2022-10-24T11:23:01.165Z,2.50
2022-10-24T11:25:31.719Z,3.00
2022-10-24T11:28:02.381Z,4.00
2022-10-24T11:30:46.157Z,2.75
2022-10-24T11:33:16.893Z,3.00
2022-10-24T11:35:56.666Z,3.00
2022-10-24T11:38:24.332Z,3.75
2022-10-24T11:40:57.774Z,3.00
2022-10-24T11:43:28.779Z,5.00
2022-10-24T11:45:57.498Z,3.50
2022-10-24T11:48:26.204Z,2.50
2022-10-24T11:50:56.413Z,2.75
2022-10-24T11:53:43.063Z,3.25
2022-10-24T11:56:13.420Z,2.50
2022-10-24T11:58:48.535Z,4.00
2022-10-24T12:01:29.063Z,2.75
2022-10-24T12:04:07.798Z,3.00
2022-10-24T12:06:56.420Z,3.75
2022-10-24T12:09:34.496Z,2.25
2022-10-24T12:12:08.606Z,2.00
2022-10-24T12:14:51.762Z,2.75
2022-10-24T12:17:29.448Z,2.00
2022-10-24T12:19:56.872Z,3.75
2022-10-24T12:25:04.717Z,2.00
2022-10-24T12:27:35.538Z,3.75
2022-10-24T12:30:04.273Z,2.50
2022-10-24T12:32:37.619Z,3.50
2022-10-24T12:35:46.569Z,3.33
2022-10-24T12:39:08.879Z,3.50
2022-10-24T12:41:39.072Z,4.00
2022-10-24T12:44:41.787Z,2.00
2022-10-24T12:47:30.159Z,3.00
2022-10-24T12:49:58.121Z,3.00
2022-10-24T12:52:50.876Z,5.00
2022-10-24T12:55:33.478Z,2.00
2022-10-24T12:58:05.134Z,3.75
2022-10-24T13:00:33.638Z,2.67
2022-10-24T13:03:06.331Z,2.00
2022-10-24T13:05:40.912Z,4.00
2022-10-24T13:08:14.030Z,2.50
2022-10-24T13:10:46.202Z,3.00
2022-10-24T13:13:23.268Z,2.25
2022-10-24T13:15:52.644Z,3.00
2022-10-24T13:18:27.896Z,3.00
2022-10-24T13:21:12.662Z,3.00
2022-10-24T13:23:42.316Z,3.75
2022-10-24T13:26:09.715Z,5.00
2022-10-24T13:28:40.373Z,5.00
2022-10-24T13:31:47.421Z,3.00
2022-10-24T13:34:25.315Z,3.00
2022-10-24T13:36:58.990Z,3.75
2022-10-24T13:39:28.486Z,3.75
2022-10-24T13:42:00.321Z,2.75
2022-10-24T13:44:30.473Z,3.00
2022-10-24T13:47:00.836Z,4.75
2022-10-24T13:49:29.583Z,3.00
2022-10-24T13:51:57.722Z,2.00
2022-10-24T13:54:27.278Z,4.00
2022-10-24T13:56:57.181Z,3.25
2022-10-24T13:59:32.812Z,1.00
2022-10-24T14:02:01.782Z,2.00
2022-10-24T14:04:29.314Z,3.25
2022-10-24T14:07:01.542Z,3.25
2022-10-24T14:09:28.925Z,4.50
2022-10-24T14:11:57.939Z,2.50
2022-10-24T14:14:28.799Z,4.00
2022-10-24T14:17:08.013Z,4.00
2022-10-24T14:19:39.263Z,3.75
2022-10-24T14:22:19.128Z,3.00
2022-10-24T14:24:46.724Z,3.75
2022-10-24T14:27:14.218Z,4.00
2022-10-24T14:29:41.635Z,4.25
2022-10-24T14:32:14.570Z,4.50
2022-10-24T14:34:41.967Z,0.25
2022-10-24T14:37:18.054Z,4.00
2022-10-24T14:39:45.465Z,5.00
2022-10-24T14:42:14.474Z,3.00
2022-10-24T14:44:41.929Z,2.00
2022-10-24T14:47:21.239Z,3.50
2022-10-24T14:49:49.645Z,3.50
2022-10-24T14:52:18.710Z,3.00
2022-10-24T14:54:53.417Z,3.00
2022-10-24T14:57:21.564Z,4.00
2022-10-24T14:59:50.278Z,4.00
2022-10-24T15:02:22.048Z,4.00
2022-10-24T15:04:51.235Z,3.75
2022-10-24T15:07:28.633Z,4.75
2022-10-24T15:09:57.143Z,4.75
2022-10-24T15:12:27.339Z,3.75
2022-10-24T15:14:56.549Z,5.00
2022-10-24T15:17:32.457Z,3.25
2022-10-24T15:20:01.450Z,3.50
2022-10-24T15:22:29.765Z,3.25
2022-10-24T15:24:57.732Z,4.00
2022-10-24T15:27:27.649Z,3.33
2022-10-24T15:29:55.149Z,5.00
2022-10-24T15:32:22.609Z,4.75
2022-10-24T15:34:54.490Z,3.75
2022-10-24T15:37:23.217Z,4.50
2022-10-24T15:39:50.642Z,4.00
2022-10-24T15:42:20.120Z,3.50
2022-10-24T15:44:49.900Z,3.00
2022-10-24T15:47:17.348Z,5.75
2022-10-24T15:49:44.745Z,6.50
2022-10-24T15:52:13.956Z,5.00
2022-10-24T15:54:42.041Z,5.00
2022-10-24T15:57:10.652Z,4.50
2022-10-24T15:59:38.062Z,5.00
2022-10-24T16:02:05.575Z,6.25
2022-10-24T16:04:33.333Z,4.00
2022-10-24T16:07:02.253Z,5.75
2022-10-24T16:09:31.073Z,4.75
2022-10-24T16:11:58.517Z,4.00
2022-10-24T16:14:26.590Z,6.50
2022-10-24T16:16:54.859Z,5.00
2022-10-24T16:19:22.276Z,6.00
2022-10-24T16:21:49.683Z,5.00
2022-10-24T16:24:18.325Z,4.75
2022-10-24T16:26:47.054Z,5.00
2022-10-24T16:29:14.465Z,6.00
2022-10-24T16:31:42.213Z,5.00
2022-10-24T16:34:09.702Z,5.00
2022-10-24T16:36:37.113Z,5.25
2022-10-24T16:39:04.646Z,4.75
2022-10-24T16:41:32.051Z,6.75
2022-10-24T16:44:00.954Z,6.00
2022-10-24T16:46:28.474Z,6.67
2022-10-24T16:48:56.049Z,6.00
2022-10-24T16:51:25.042Z,5.00
2022-10-24T16:53:52.471Z,6.75
2022-10-24T16:56:19.889Z,4.75
2022-10-24T16:58:47.320Z,5.00
2022-10-24T17:01:16.239Z,4.00
2022-10-24T17:03:44.745Z,6.00
2022-10-24T17:06:12.287Z,5.00
2022-10-24T17:08:40.661Z,4.50
2022-10-24T17:11:25.781Z,5.00
2022-10-24T17:13:55.537Z,4.25
2022-10-24T17:16:24.514Z,3.75
2022-10-24T17:19:05.567Z,6.00
2022-10-24T17:21:41.299Z,4.00
2022-10-24T17:24:11.145Z,5.00
2022-10-24T17:26:38.627Z,7.00
2022-10-24T17:29:08.137Z,4.00
2022-10-24T17:31:36.982Z,4.00
2022-10-24T17:34:04.984Z,4.33
2022-10-24T17:36:34.530Z,3.67
2022-10-24T17:39:09.208Z,5.33
2022-10-24T17:41:39.143Z,4.67
2022-10-24T17:44:07.285Z,4.00
2022-10-24T17:46:35.028Z,7.00
2022-10-24T17:49:03.709Z,7.00
2022-10-24T17:51:36.923Z,5.00
2022-10-24T17:54:05.786Z,5.67
2022-10-24T17:56:33.215Z,5.33
2022-10-24T17:59:00.644Z,3.00
2022-10-24T18:01:28.133Z,5.25
2022-10-24T18:03:55.609Z,3.00
2022-10-24T18:06:24.336Z,5.25
2022-10-24T18:08:53.647Z,5.00
2022-10-24T18:11:21.066Z,4.75
2022-10-24T18:13:48.507Z,4.50
2022-10-24T18:16:17.869Z,3.75
2022-10-24T18:18:46.046Z,3.00
2022-10-24T18:21:14.823Z,4.25
2022-10-24T18:23:43.626Z,2.75
2022-10-24T18:26:12.047Z,3.25
2022-10-24T18:28:39.708Z,5.25
2022-10-24T18:31:08.971Z,3.75
2022-10-24T18:33:36.391Z,1.50
2022-10-24T18:36:08.241Z,5.00
2022-10-24T18:38:35.898Z,4.75
2022-10-24T18:41:05.030Z,3.25
2022-10-24T18:43:32.648Z,5.00
2022-10-24T18:46:00.434Z,3.75
2022-10-24T18:48:28.203Z,4.75
2022-10-24T18:50:55.864Z,6.00
2022-10-24T18:53:24.003Z,4.00
2022-10-24T18:55:51.812Z,5.00
2022-10-24T18:58:20.765Z,3.25
2022-10-24T19:00:48.517Z,4.00
2022-10-24T19:03:21.587Z,4.75
2022-10-24T19:05:53.815Z,3.00
2022-10-24T19:08:23.410Z,6.00
2022-10-24T19:10:53.794Z,3.75
2022-10-24T19:13:22.808Z,3.25
2022-10-24T19:15:53.060Z,3.00
2022-10-24T19:18:20.472Z,4.00
2022-10-24T19:20:47.887Z,4.00
2022-10-24T19:23:15.845Z,3.25
2022-10-24T19:25:43.287Z,5.00
2022-10-24T19:28:11.346Z,3.50
2022-10-24T19:30:42.196Z,4.00
2022-10-24T19:33:09.621Z,3.75
2022-10-24T19:35:37.181Z,2.25
2022-10-24T19:38:04.617Z,3.00
2022-10-24T19:40:32.051Z,3.50
2022-10-24T19:42:59.469Z,3.75
2022-10-24T19:45:26.881Z,4.50
2022-10-24T19:47:56.285Z,4.00
2022-10-24T19:50:23.698Z,2.00
2022-10-24T19:52:51.102Z,3.00
2022-10-24T19:55:18.492Z,3.00
2022-10-24T19:57:46.155Z,3.75
2022-10-24T20:00:14.555Z,4.00
2022-10-24T20:02:42.648Z,2.50
2022-10-24T20:05:11.501Z,4.00
2022-10-24T20:07:38.918Z,4.00
2022-10-24T20:10:07.292Z,1.50
2022-10-24T20:12:34.712Z,4.00
2022-10-24T20:15:02.191Z,5.50
2022-10-24T20:17:29.688Z,3.00
2022-10-24T20:19:57.115Z,4.50
2022-10-24T20:22:25.832Z,3.75
2022-10-24T20:24:53.222Z,3.00
2022-10-24T20:27:23.747Z,3.00
2022-10-24T20:29:52.184Z,2.00
2022-10-24T20:32:20.182Z,3.50
2022-10-24T20:34:47.587Z,4.00
2022-10-24T20:37:15.053Z,3.00
2022-10-24T20:39:43.788Z,2.50
2022-10-24T20:42:11.410Z,2.50
2022-10-24T20:44:38.816Z,4.25
2022-10-24T20:47:06.229Z,2.00
2022-10-24T20:49:33.630Z,3.00
2022-10-24T20:52:01.113Z,3.00
2022-10-24T20:54:28.563Z,3.25
2022-10-24T20:56:57.297Z,2.00
2022-10-24T20:59:24.724Z,3.00
2022-10-24T21:01:52.220Z,3.00
2022-10-24T21:04:20.826Z,3.00
2022-10-24T21:06:48.478Z,4.00
2022-10-24T21:09:15.897Z,3.50
2022-10-24T21:11:43.382Z,3.00
2022-10-24T21:14:12.837Z,2.67
2022-10-24T21:16:40.246Z,4.00
2022-10-24T21:19:07.652Z,4.00
2022-10-24T21:21:35.036Z,3.00
2022-10-24T21:24:05.843Z,3.00
2022-10-24T21:26:37.818Z,2.00
2022-10-24T21:29:15.024Z,1.00
2022-10-24T21:31:53.910Z,2.75
2022-10-24T21:34:21.557Z,2.33
2022-10-24T21:36:48.967Z,3.33
2022-10-24T21:39:16.765Z,2.67
2022-10-24T21:41:44.249Z,4.00
2022-10-24T21:44:11.857Z,2.00
2022-10-24T21:46:39.271Z,2.00
2022-10-24T21:49:07.997Z,2.67
2022-10-24T21:51:36.316Z,3.00
2022-10-24T21:54:04.959Z,4.00
2022-10-24T21:56:33.786Z,3.67
2022-10-24T22:01:31.678Z,3.25
2022-10-24T22:03:59.556Z,3.00
2022-10-24T22:06:28.924Z,4.00
2022-10-24T22:08:56.623Z,2.00
2022-10-24T22:11:24.834Z,3.00
2022-10-24T22:13:52.535Z,3.00
2022-10-24T22:16:20.812Z,3.00
2022-10-24T22:18:48.262Z,3.67
2022-10-24T22:21:18.610Z,2.67
2022-10-24T22:23:47.281Z,4.00
2022-10-24T22:26:14.692Z,4.00
2022-10-24T22:28:42.230Z,3.33
2022-10-24T22:31:10.370Z,3.00
2022-10-24T22:33:38.544Z,3.00
2022-10-24T22:36:08.802Z,4.00
2022-10-24T22:38:36.640Z,4.25
2022-10-24T22:41:05.798Z,4.25
2022-10-24T22:43:33.930Z,3.00
2022-10-24T22:46:05.319Z,3.50
2022-10-24T22:48:33.983Z,4.00
2022-10-24T22:51:01.527Z,3.75
2022-10-24T22:53:30.650Z,4.00
2022-10-24T22:56:11.571Z,3.75
2022-10-24T22:58:39.435Z,3.00
2022-10-24T23:01:13.609Z,3.75
2022-10-24T23:03:46.013Z,3.00
2022-10-24T23:06:14.744Z,3.75
2022-10-24T23:08:43.799Z,3.25
2022-10-24T23:11:13.269Z,4.00
2022-10-24T23:13:41.090Z,5.25
2022-10-24T23:16:11.505Z,3.00
2022-10-24T23:18:39.295Z,4.00
2022-10-24T23:21:12.126Z,3.75
2022-10-24T23:23:39.918Z,3.00
2022-10-24T23:26:09.879Z,5.00
2022-10-24T23:28:40.484Z,4.00
2022-10-24T23:31:08.421Z,5.00
2022-10-24T23:33:36.366Z,3.00
2022-10-24T23:36:04.223Z,4.75
2022-10-24T23:38:32.534Z,3.75
2022-10-24T23:41:00.594Z,4.50
2022-10-24T23:43:28.318Z,3.00
2022-10-24T23:46:00.219Z,3.25
2022-10-24T23:48:35.983Z,3.00
2022-10-24T23:51:05.330Z,5.00
2022-10-24T23:53:36.363Z,3.50
2022-10-24T23:56:04.402Z,3.00
2022-10-24T23:58:31.906Z,4.00
